sensor_id;sensor_type;location;lat;lon;timestamp;P1;durP1;ratioP1;P2;durP2;ratioP2
9716;SDS011;4897;43.570;27.832;2023-03-11T00:02:14;6.57;;;3.00;;
9716;SDS011;4897;43.570;27.832;2023-03-11T00:04:41;9.82;;;3.13;;
9716;SDS011;4897;43.570;27.832;2023-03-11T00:07:08;10.88;;;3.45;;
9716;SDS011;4897;43.570;27.832;2023-03-11T00:09:36;7.80;;;3.20;;
9716;SDS011;4897;43.570;27.832;2023-03-11T00:12:04;9.35;;;3.72;;
9716;SDS011;4897;43.570;27.832;2023-03-11T00:14:33;8.75;;;3.45;;
9716;SDS011;4897;43.570;27.832;2023-03-11T00:17:00;8.15;;;3.38;;
9716;SDS011;4897;43.570;27.832;2023-03-11T00:19:26;17.02;;;3.35;;
9716;SDS011;4897;43.570;27.832;2023-03-11T00:21:53;5.10;;;3.05;;
9716;SDS011;4897;43.570;27.832;2023-03-11T00:24:20;10.30;;;3.40;;
9716;SDS011;4897;43.570;27.832;2023-03-11T00:26:47;10.65;;;3.42;;
9716;SDS011;4897;43.570;27.832;2023-03-11T00:29:14;12.20;;;3.60;;
9716;SDS011;4897;43.570;27.832;2023-03-11T00:31:42;7.93;;;3.30;;
9716;SDS011;4897;43.570;27.832;2023-03-11T00:34:09;7.50;;;3.28;;
9716;SDS011;4897;43.570;27.832;2023-03-11T00:36:36;11.68;;;4.07;;
9716;SDS011;4897;43.570;27.832;2023-03-11T00:39:03;11.70;;;3.50;;
9716;SDS011;4897;43.570;27.832;2023-03-11T00:41:31;8.50;;;3.95;;
9716;SDS011;4897;43.570;27.832;2023-03-11T00:43:58;9.00;;;3.65;;
9716;SDS011;4897;43.570;27.832;2023-03-11T00:46:25;13.00;;;3.85;;
9716;SDS011;4897;43.570;27.832;2023-03-11T00:48:55;11.90;;;4.53;;
9716;SDS011;4897;43.570;27.832;2023-03-11T00:51:22;13.65;;;4.80;;
9716;SDS011;4897;43.570;27.832;2023-03-11T00:53:49;16.20;;;5.00;;
9716;SDS011;4897;43.570;27.832;2023-03-11T00:56:16;14.43;;;5.38;;
9716;SDS011;4897;43.570;27.832;2023-03-11T00:58:43;13.73;;;5.88;;
9716;SDS011;4897;43.570;27.832;2023-03-11T01:01:12;19.27;;;6.00;;
9716;SDS011;4897;43.570;27.832;2023-03-11T01:03:41;10.88;;;5.70;;
9716;SDS011;4897;43.570;27.832;2023-03-11T01:06:10;11.57;;;6.30;;
9716;SDS011;4897;43.570;27.832;2023-03-11T01:08:38;16.40;;;6.20;;
9716;SDS011;4897;43.570;27.832;2023-03-11T01:11:05;18.05;;;5.70;;
9716;SDS011;4897;43.570;27.832;2023-03-11T01:13:33;14.68;;;6.13;;
9716;SDS011;4897;43.570;27.832;2023-03-11T01:16:00;15.18;;;5.93;;
9716;SDS011;4897;43.570;27.832;2023-03-11T01:18:27;14.10;;;5.65;;
9716;SDS011;4897;43.570;27.832;2023-03-11T01:20:54;16.10;;;5.10;;
9716;SDS011;4897;43.570;27.832;2023-03-11T01:23:22;13.52;;;4.85;;
9716;SDS011;4897;43.570;27.832;2023-03-11T01:25:49;11.18;;;5.20;;
9716;SDS011;4897;43.570;27.832;2023-03-11T01:28:16;12.65;;;5.35;;
9716;SDS011;4897;43.570;27.832;2023-03-11T01:30:43;15.85;;;5.38;;
9716;SDS011;4897;43.570;27.832;2023-03-11T01:33:12;14.00;;;4.53;;
9716;SDS011;4897;43.570;27.832;2023-03-11T01:35:41;10.43;;;4.10;;
9716;SDS011;4897;43.570;27.832;2023-03-11T01:38:08;10.80;;;4.10;;
9716;SDS011;4897;43.570;27.832;2023-03-11T01:40:37;10.52;;;3.50;;
9716;SDS011;4897;43.570;27.832;2023-03-11T01:43:06;12.15;;;3.42;;
9716;SDS011;4897;43.570;27.832;2023-03-11T01:46:07;11.82;;;3.90;;
9716;SDS011;4897;43.570;27.832;2023-03-11T01:48:37;12.18;;;4.30;;
9716;SDS011;4897;43.570;27.832;2023-03-11T01:51:06;13.57;;;3.70;;
9716;SDS011;4897;43.570;27.832;2023-03-11T01:53:34;11.25;;;3.05;;
9716;SDS011;4897;43.570;27.832;2023-03-11T01:56:03;9.43;;;3.47;;
9716;SDS011;4897;43.570;27.832;2023-03-11T01:58:33;11.82;;;3.47;;
9716;SDS011;4897;43.570;27.832;2023-03-11T02:01:05;10.15;;;3.50;;
9716;SDS011;4897;43.570;27.832;2023-03-11T02:03:33;10.98;;;3.40;;
9716;SDS011;4897;43.570;27.832;2023-03-11T02:06:04;12.07;;;3.42;;
9716;SDS011;4897;43.570;27.832;2023-03-11T02:08:34;9.38;;;3.45;;
9716;SDS011;4897;43.570;27.832;2023-03-11T02:11:04;11.63;;;3.65;;
9716;SDS011;4897;43.570;27.832;2023-03-11T02:13:33;19.98;;;3.15;;
9716;SDS011;4897;43.570;27.832;2023-03-11T02:16:01;11.13;;;3.17;;
9716;SDS011;4897;43.570;27.832;2023-03-11T02:18:28;11.23;;;3.17;;
9716;SDS011;4897;43.570;27.832;2023-03-11T02:20:57;11.73;;;3.45;;
9716;SDS011;4897;43.570;27.832;2023-03-11T02:23:33;11.77;;;3.38;;
9716;SDS011;4897;43.570;27.832;2023-03-11T02:26:12;12.13;;;4.15;;
9716;SDS011;4897;43.570;27.832;2023-03-11T02:28:45;11.30;;;3.45;;
9716;SDS011;4897;43.570;27.832;2023-03-11T02:31:14;8.98;;;3.53;;
9716;SDS011;4897;43.570;27.832;2023-03-11T02:33:41;9.55;;;3.67;;
9716;SDS011;4897;43.570;27.832;2023-03-11T02:38:56;12.30;;;3.63;;
9716;SDS011;4897;43.570;27.832;2023-03-11T02:41:23;10.98;;;3.70;;
9716;SDS011;4897;43.570;27.832;2023-03-11T02:43:51;17.38;;;4.47;;
9716;SDS011;4897;43.570;27.832;2023-03-11T02:46:19;17.65;;;4.35;;
9716;SDS011;4897;43.570;27.832;2023-03-11T02:48:46;11.82;;;4.05;;
9716;SDS011;4897;43.570;27.832;2023-03-11T02:51:14;13.48;;;4.50;;
9716;SDS011;4897;43.570;27.832;2023-03-11T02:53:43;14.38;;;3.85;;
9716;SDS011;4897;43.570;27.832;2023-03-11T02:56:13;12.00;;;3.97;;
9716;SDS011;4897;43.570;27.832;2023-03-11T02:58:39;9.43;;;3.83;;
9716;SDS011;4897;43.570;27.832;2023-03-11T03:01:08;12.75;;;4.03;;
9716;SDS011;4897;43.570;27.832;2023-03-11T03:03:35;12.50;;;4.28;;
9716;SDS011;4897;43.570;27.832;2023-03-11T03:06:02;10.77;;;4.15;;
9716;SDS011;4897;43.570;27.832;2023-03-11T03:08:29;12.10;;;4.30;;
9716;SDS011;4897;43.570;27.832;2023-03-11T03:10:56;12.48;;;3.92;;
9716;SDS011;4897;43.570;27.832;2023-03-11T03:13:24;7.80;;;3.67;;
9716;SDS011;4897;43.570;27.832;2023-03-11T03:15:51;12.70;;;4.00;;
9716;SDS011;4897;43.570;27.832;2023-03-11T03:18:19;16.40;;;3.70;;
9716;SDS011;4897;43.570;27.832;2023-03-11T03:20:46;15.70;;;4.78;;
9716;SDS011;4897;43.570;27.832;2023-03-11T03:23:13;13.73;;;5.07;;
9716;SDS011;4897;43.570;27.832;2023-03-11T03:25:40;13.80;;;4.82;;
9716;SDS011;4897;43.570;27.832;2023-03-11T03:28:07;13.48;;;4.95;;
9716;SDS011;4897;43.570;27.832;2023-03-11T03:30:35;9.88;;;4.65;;
9716;SDS011;4897;43.570;27.832;2023-03-11T03:33:03;12.75;;;5.25;;
9716;SDS011;4897;43.570;27.832;2023-03-11T03:35:32;15.45;;;5.65;;
9716;SDS011;4897;43.570;27.832;2023-03-11T03:38:00;15.48;;;5.10;;
9716;SDS011;4897;43.570;27.832;2023-03-11T03:40:27;13.77;;;4.85;;
9716;SDS011;4897;43.570;27.832;2023-03-11T03:42:54;19.40;;;5.75;;
9716;SDS011;4897;43.570;27.832;2023-03-11T03:45:21;15.20;;;5.28;;
9716;SDS011;4897;43.570;27.832;2023-03-11T03:47:48;17.25;;;5.00;;
9716;SDS011;4897;43.570;27.832;2023-03-11T03:50:15;18.27;;;5.72;;
9716;SDS011;4897;43.570;27.832;2023-03-11T03:52:43;16.23;;;5.43;;
9716;SDS011;4897;43.570;27.832;2023-03-11T03:55:10;12.77;;;5.78;;
9716;SDS011;4897;43.570;27.832;2023-03-11T03:57:37;12.85;;;5.28;;
9716;SDS011;4897;43.570;27.832;2023-03-11T04:00:04;14.68;;;5.20;;
9716;SDS011;4897;43.570;27.832;2023-03-11T04:02:34;15.65;;;4.63;;
9716;SDS011;4897;43.570;27.832;2023-03-11T04:05:01;14.15;;;6.30;;
9716;SDS011;4897;43.570;27.832;2023-03-11T04:07:28;13.43;;;6.75;;
9716;SDS011;4897;43.570;27.832;2023-03-11T04:09:56;22.60;;;7.22;;
9716;SDS011;4897;43.570;27.832;2023-03-11T04:12:23;15.77;;;6.85;;
9716;SDS011;4897;43.570;27.832;2023-03-11T04:14:50;11.43;;;4.63;;
9716;SDS011;4897;43.570;27.832;2023-03-11T04:17:18;10.50;;;4.50;;
9716;SDS011;4897;43.570;27.832;2023-03-11T04:19:45;9.05;;;4.07;;
9716;SDS011;4897;43.570;27.832;2023-03-11T04:22:12;8.88;;;4.05;;
9716;SDS011;4897;43.570;27.832;2023-03-11T04:24:39;9.13;;;4.22;;
9716;SDS011;4897;43.570;27.832;2023-03-11T04:27:07;9.05;;;3.70;;
9716;SDS011;4897;43.570;27.832;2023-03-11T04:29:34;14.27;;;4.18;;
9716;SDS011;4897;43.570;27.832;2023-03-11T04:32:01;10.55;;;3.60;;
9716;SDS011;4897;43.570;27.832;2023-03-11T04:34:27;8.77;;;3.10;;
9716;SDS011;4897;43.570;27.832;2023-03-11T04:36:54;11.00;;;3.42;;
9716;SDS011;4897;43.570;27.832;2023-03-11T04:39:21;8.82;;;3.45;;
9716;SDS011;4897;43.570;27.832;2023-03-11T04:41:48;8.85;;;3.60;;
9716;SDS011;4897;43.570;27.832;2023-03-11T04:44:16;10.55;;;3.63;;
9716;SDS011;4897;43.570;27.832;2023-03-11T04:46:43;11.02;;;3.33;;
9716;SDS011;4897;43.570;27.832;2023-03-11T04:49:10;12.15;;;3.63;;
9716;SDS011;4897;43.570;27.832;2023-03-11T04:51:37;8.35;;;3.15;;
9716;SDS011;4897;43.570;27.832;2023-03-11T04:54:03;12.77;;;3.63;;
9716;SDS011;4897;43.570;27.832;2023-03-11T04:56:30;11.23;;;3.60;;
9716;SDS011;4897;43.570;27.832;2023-03-11T04:58:57;10.75;;;3.72;;
9716;SDS011;4897;43.570;27.832;2023-03-11T05:01:26;11.50;;;3.50;;
9716;SDS011;4897;43.570;27.832;2023-03-11T05:03:53;9.85;;;2.92;;
9716;SDS011;4897;43.570;27.832;2023-03-11T05:06:19;9.35;;;3.25;;
9716;SDS011;4897;43.570;27.832;2023-03-11T05:08:46;15.25;;;4.22;;
9716;SDS011;4897;43.570;27.832;2023-03-11T05:11:13;9.43;;;3.38;;
9716;SDS011;4897;43.570;27.832;2023-03-11T05:13:40;9.38;;;3.35;;
9716;SDS011;4897;43.570;27.832;2023-03-11T05:16:07;10.05;;;3.35;;
9716;SDS011;4897;43.570;27.832;2023-03-11T05:18:35;16.42;;;4.55;;
9716;SDS011;4897;43.570;27.832;2023-03-11T05:21:02;8.02;;;3.90;;
9716;SDS011;4897;43.570;27.832;2023-03-11T05:23:29;9.25;;;3.20;;
9716;SDS011;4897;43.570;27.832;2023-03-11T05:25:56;16.15;;;3.90;;
9716;SDS011;4897;43.570;27.832;2023-03-11T05:28:22;10.15;;;3.92;;
9716;SDS011;4897;43.570;27.832;2023-03-11T05:30:49;5.00;;;2.60;;
9716;SDS011;4897;43.570;27.832;2023-03-11T05:33:16;7.88;;;3.38;;
9716;SDS011;4897;43.570;27.832;2023-03-11T05:35:44;9.27;;;3.10;;
9716;SDS011;4897;43.570;27.832;2023-03-11T05:38:11;10.77;;;3.20;;
9716;SDS011;4897;43.570;27.832;2023-03-11T05:40:38;9.48;;;3.72;;
9716;SDS011;4897;43.570;27.832;2023-03-11T05:43:05;12.40;;;3.25;;
9716;SDS011;4897;43.570;27.832;2023-03-11T05:45:32;8.98;;;3.35;;
9716;SDS011;4897;43.570;27.832;2023-03-11T05:47:59;9.40;;;3.22;;
9716;SDS011;4897;43.570;27.832;2023-03-11T05:50:26;12.27;;;3.25;;
9716;SDS011;4897;43.570;27.832;2023-03-11T05:52:54;11.55;;;3.60;;
9716;SDS011;4897;43.570;27.832;2023-03-11T05:55:21;9.05;;;3.15;;
9716;SDS011;4897;43.570;27.832;2023-03-11T05:57:49;13.07;;;3.53;;
9716;SDS011;4897;43.570;27.832;2023-03-11T06:00:16;8.68;;;2.75;;
9716;SDS011;4897;43.570;27.832;2023-03-11T06:02:44;11.00;;;3.65;;
9716;SDS011;4897;43.570;27.832;2023-03-11T06:05:11;6.45;;;3.13;;
9716;SDS011;4897;43.570;27.832;2023-03-11T06:07:38;11.48;;;3.55;;
9716;SDS011;4897;43.570;27.832;2023-03-11T06:10:07;5.88;;;2.90;;
9716;SDS011;4897;43.570;27.832;2023-03-11T06:12:35;9.18;;;3.25;;
9716;SDS011;4897;43.570;27.832;2023-03-11T06:15:03;9.20;;;3.63;;
9716;SDS011;4897;43.570;27.832;2023-03-11T06:17:30;8.30;;;2.78;;
9716;SDS011;4897;43.570;27.832;2023-03-11T06:19:57;8.13;;;3.30;;
9716;SDS011;4897;43.570;27.832;2023-03-11T06:22:24;16.27;;;3.40;;
9716;SDS011;4897;43.570;27.832;2023-03-11T06:24:51;11.63;;;3.38;;
9716;SDS011;4897;43.570;27.832;2023-03-11T06:27:19;9.05;;;3.55;;
9716;SDS011;4897;43.570;27.832;2023-03-11T06:29:46;14.02;;;4.45;;
9716;SDS011;4897;43.570;27.832;2023-03-11T06:32:17;12.10;;;4.28;;
9716;SDS011;4897;43.570;27.832;2023-03-11T06:34:48;13.93;;;4.57;;
9716;SDS011;4897;43.570;27.832;2023-03-11T06:37:15;9.85;;;4.22;;
9716;SDS011;4897;43.570;27.832;2023-03-11T06:39:42;12.05;;;4.32;;
9716;SDS011;4897;43.570;27.832;2023-03-11T06:42:09;10.13;;;3.70;;
9716;SDS011;4897;43.570;27.832;2023-03-11T06:44:38;8.38;;;3.75;;
9716;SDS011;4897;43.570;27.832;2023-03-11T06:47:05;8.30;;;3.40;;
9716;SDS011;4897;43.570;27.832;2023-03-11T06:49:32;14.02;;;3.78;;
9716;SDS011;4897;43.570;27.832;2023-03-11T06:52:01;8.43;;;3.70;;
9716;SDS011;4897;43.570;27.832;2023-03-11T06:54:27;11.85;;;3.92;;
9716;SDS011;4897;43.570;27.832;2023-03-11T06:56:54;11.35;;;4.03;;
9716;SDS011;4897;43.570;27.832;2023-03-11T06:59:21;10.80;;;3.65;;
9716;SDS011;4897;43.570;27.832;2023-03-11T07:01:52;12.18;;;3.78;;
9716;SDS011;4897;43.570;27.832;2023-03-11T07:04:19;17.23;;;4.15;;
9716;SDS011;4897;43.570;27.832;2023-03-11T07:06:46;13.77;;;3.70;;
9716;SDS011;4897;43.570;27.832;2023-03-11T07:09:13;11.90;;;3.58;;
9716;SDS011;4897;43.570;27.832;2023-03-11T07:11:40;11.13;;;2.78;;
9716;SDS011;4897;43.570;27.832;2023-03-11T07:14:06;11.48;;;3.63;;
9716;SDS011;4897;43.570;27.832;2023-03-11T07:16:33;15.63;;;3.53;;
9716;SDS011;4897;43.570;27.832;2023-03-11T07:19:02;9.82;;;3.30;;
9716;SDS011;4897;43.570;27.832;2023-03-11T07:21:29;8.65;;;3.35;;
9716;SDS011;4897;43.570;27.832;2023-03-11T07:23:57;14.15;;;3.80;;
9716;SDS011;4897;43.570;27.832;2023-03-11T07:26:26;14.68;;;3.92;;
9716;SDS011;4897;43.570;27.832;2023-03-11T07:28:54;9.80;;;3.28;;
9716;SDS011;4897;43.570;27.832;2023-03-11T07:31:23;16.92;;;3.75;;
9716;SDS011;4897;43.570;27.832;2023-03-11T07:33:51;9.10;;;3.33;;
9716;SDS011;4897;43.570;27.832;2023-03-11T07:36:20;16.77;;;3.65;;
9716;SDS011;4897;43.570;27.832;2023-03-11T07:38:52;10.95;;;3.20;;
9716;SDS011;4897;43.570;27.832;2023-03-11T07:41:22;12.63;;;2.83;;
9716;SDS011;4897;43.570;27.832;2023-03-11T07:43:52;12.73;;;3.35;;
9716;SDS011;4897;43.570;27.832;2023-03-11T07:46:20;10.77;;;3.15;;
9716;SDS011;4897;43.570;27.832;2023-03-11T07:48:49;10.20;;;3.03;;
9716;SDS011;4897;43.570;27.832;2023-03-11T07:51:17;13.77;;;3.38;;
9716;SDS011;4897;43.570;27.832;2023-03-11T07:53:47;11.43;;;3.30;;
9716;SDS011;4897;43.570;27.832;2023-03-11T07:56:14;9.65;;;3.08;;
9716;SDS011;4897;43.570;27.832;2023-03-11T07:58:42;8.20;;;3.08;;
9716;SDS011;4897;43.570;27.832;2023-03-11T08:01:13;15.02;;;4.10;;
9716;SDS011;4897;43.570;27.832;2023-03-11T08:03:41;10.90;;;3.28;;
9716;SDS011;4897;43.570;27.832;2023-03-11T08:06:11;11.15;;;3.30;;
9716;SDS011;4897;43.570;27.832;2023-03-11T08:08:40;14.60;;;3.28;;
9716;SDS011;4897;43.570;27.832;2023-03-11T08:11:07;8.55;;;2.53;;
9716;SDS011;4897;43.570;27.832;2023-03-11T08:13:34;9.70;;;2.88;;
9716;SDS011;4897;43.570;27.832;2023-03-11T08:16:02;9.45;;;3.50;;
9716;SDS011;4897;43.570;27.832;2023-03-11T08:18:29;10.38;;;3.38;;
9716;SDS011;4897;43.570;27.832;2023-03-11T08:20:56;6.68;;;2.63;;
9716;SDS011;4897;43.570;27.832;2023-03-11T08:23:24;8.27;;;2.97;;
9716;SDS011;4897;43.570;27.832;2023-03-11T08:25:52;9.57;;;3.15;;
9716;SDS011;4897;43.570;27.832;2023-03-11T08:28:19;9.90;;;3.53;;
9716;SDS011;4897;43.570;27.832;2023-03-11T08:30:46;9.73;;;2.70;;
9716;SDS011;4897;43.570;27.832;2023-03-11T08:33:13;7.30;;;2.70;;
9716;SDS011;4897;43.570;27.832;2023-03-11T08:35:39;8.73;;;2.88;;
9716;SDS011;4897;43.570;27.832;2023-03-11T08:38:06;8.82;;;3.28;;
9716;SDS011;4897;43.570;27.832;2023-03-11T08:40:33;9.13;;;3.13;;
9716;SDS011;4897;43.570;27.832;2023-03-11T08:43:01;11.98;;;3.60;;
9716;SDS011;4897;43.570;27.832;2023-03-11T08:45:28;10.70;;;3.22;;
9716;SDS011;4897;43.570;27.832;2023-03-11T08:47:55;9.52;;;3.45;;
9716;SDS011;4897;43.570;27.832;2023-03-11T08:50:22;11.35;;;3.38;;
9716;SDS011;4897;43.570;27.832;2023-03-11T08:52:49;8.85;;;2.80;;
9716;SDS011;4897;43.570;27.832;2023-03-11T08:55:16;11.98;;;3.40;;
9716;SDS011;4897;43.570;27.832;2023-03-11T08:57:49;6.70;;;3.15;;
9716;SDS011;4897;43.570;27.832;2023-03-11T09:00:18;7.80;;;2.80;;
9716;SDS011;4897;43.570;27.832;2023-03-11T09:02:45;2.38;;;1.52;;
9716;SDS011;4897;43.570;27.832;2023-03-11T09:05:12;3.45;;;1.60;;
9716;SDS011;4897;43.570;27.832;2023-03-11T09:07:39;6.28;;;0.90;;
9716;SDS011;4897;43.570;27.832;2023-03-11T09:10:07;4.47;;;1.10;;
9716;SDS011;4897;43.570;27.832;2023-03-11T09:12:36;1.85;;;1.13;;
9716;SDS011;4897;43.570;27.832;2023-03-11T09:15:03;1.42;;;1.10;;
9716;SDS011;4897;43.570;27.832;2023-03-11T09:17:32;5.47;;;1.25;;
9716;SDS011;4897;43.570;27.832;2023-03-11T09:19:59;3.08;;;1.40;;
9716;SDS011;4897;43.570;27.832;2023-03-11T09:22:26;2.88;;;1.50;;
9716;SDS011;4897;43.570;27.832;2023-03-11T09:24:53;3.15;;;1.60;;
9716;SDS011;4897;43.570;27.832;2023-03-11T09:27:20;1.50;;;1.38;;
9716;SDS011;4897;43.570;27.832;2023-03-11T09:29:47;3.80;;;1.45;;
9716;SDS011;4897;43.570;27.832;2023-03-11T09:32:14;2.28;;;1.77;;
9716;SDS011;4897;43.570;27.832;2023-03-11T09:34:43;2.75;;;1.85;;
9716;SDS011;4897;43.570;27.832;2023-03-11T09:37:09;2.58;;;1.80;;
9716;SDS011;4897;43.570;27.832;2023-03-11T09:39:36;4.53;;;1.92;;
9716;SDS011;4897;43.570;27.832;2023-03-11T09:42:05;1.67;;;1.40;;
9716;SDS011;4897;43.570;27.832;2023-03-11T09:44:42;2.95;;;1.58;;
9716;SDS011;4897;43.570;27.832;2023-03-11T09:47:17;1.50;;;1.15;;
9716;SDS011;4897;43.570;27.832;2023-03-11T09:50:07;1.98;;;1.20;;
9716;SDS011;4897;43.570;27.832;2023-03-11T09:52:42;1.70;;;1.30;;
9716;SDS011;4897;43.570;27.832;2023-03-11T09:55:26;2.65;;;1.58;;
9716;SDS011;4897;43.570;27.832;2023-03-11T09:57:58;3.75;;;1.20;;
9716;SDS011;4897;43.570;27.832;2023-03-11T10:00:28;2.72;;;1.27;;
9716;SDS011;4897;43.570;27.832;2023-03-11T10:02:56;2.72;;;1.50;;
9716;SDS011;4897;43.570;27.832;2023-03-11T10:05:27;5.80;;;1.42;;
9716;SDS011;4897;43.570;27.832;2023-03-11T10:07:57;1.75;;;1.15;;
9716;SDS011;4897;43.570;27.832;2023-03-11T10:10:31;3.88;;;1.60;;
9716;SDS011;4897;43.570;27.832;2023-03-11T10:13:07;2.63;;;1.75;;
9716;SDS011;4897;43.570;27.832;2023-03-11T10:15:41;2.25;;;1.42;;
9716;SDS011;4897;43.570;27.832;2023-03-11T10:18:22;2.25;;;1.20;;
9716;SDS011;4897;43.570;27.832;2023-03-11T10:21:05;2.08;;;1.35;;
9716;SDS011;4897;43.570;27.832;2023-03-11T10:23:46;5.00;;;1.00;;
9716;SDS011;4897;43.570;27.832;2023-03-11T10:26:25;2.67;;;1.75;;
9716;SDS011;4897;43.570;27.832;2023-03-11T10:28:58;3.45;;;1.58;;
9716;SDS011;4897;43.570;27.832;2023-03-11T10:31:34;1.25;;;1.15;;
9716;SDS011;4897;43.570;27.832;2023-03-11T10:34:10;1.77;;;1.20;;
9716;SDS011;4897;43.570;27.832;2023-03-11T10:36:49;1.20;;;0.98;;
9716;SDS011;4897;43.570;27.832;2023-03-11T10:39:22;3.05;;;1.23;;
9716;SDS011;4897;43.570;27.832;2023-03-11T10:41:51;5.47;;;1.23;;
9716;SDS011;4897;43.570;27.832;2023-03-11T10:44:21;1.17;;;1.08;;
9716;SDS011;4897;43.570;27.832;2023-03-11T10:46:53;4.40;;;1.10;;
9716;SDS011;4897;43.570;27.832;2023-03-11T10:49:20;3.58;;;1.30;;
9716;SDS011;4897;43.570;27.832;2023-03-11T10:51:49;1.52;;;1.13;;
9716;SDS011;4897;43.570;27.832;2023-03-11T10:54:21;9.23;;;0.95;;
9716;SDS011;4897;43.570;27.832;2023-03-11T10:56:53;1.20;;;1.02;;
9716;SDS011;4897;43.570;27.832;2023-03-11T10:59:22;4.28;;;1.00;;
9716;SDS011;4897;43.570;27.832;2023-03-11T11:01:55;1.75;;;1.00;;
9716;SDS011;4897;43.570;27.832;2023-03-11T11:04:27;1.40;;;1.00;;
9716;SDS011;4897;43.570;27.832;2023-03-11T11:07:06;1.45;;;1.05;;
9716;SDS011;4897;43.570;27.832;2023-03-11T11:09:47;1.70;;;1.10;;
9716;SDS011;4897;43.570;27.832;2023-03-11T11:12:35;5.55;;;1.48;;
9716;SDS011;4897;43.570;27.832;2023-03-11T11:15:02;1.92;;;1.00;;
9716;SDS011;4897;43.570;27.832;2023-03-11T11:17:30;1.88;;;1.17;;
9716;SDS011;4897;43.570;27.832;2023-03-11T11:19:59;1.15;;;1.00;;
9716;SDS011;4897;43.570;27.832;2023-03-11T11:22:38;4.57;;;1.10;;
9716;SDS011;4897;43.570;27.832;2023-03-11T11:25:30;1.98;;;1.10;;
9716;SDS011;4897;43.570;27.832;2023-03-11T11:28:00;1.42;;;1.27;;
9716;SDS011;4897;43.570;27.832;2023-03-11T11:30:30;1.88;;;1.40;;
9716;SDS011;4897;43.570;27.832;2023-03-11T11:33:02;1.45;;;1.23;;
9716;SDS011;4897;43.570;27.832;2023-03-11T11:35:48;1.60;;;1.30;;
9716;SDS011;4897;43.570;27.832;2023-03-11T11:38:18;1.85;;;1.40;;
9716;SDS011;4897;43.570;27.832;2023-03-11T11:40:49;2.20;;;1.20;;
9716;SDS011;4897;43.570;27.832;2023-03-11T11:43:17;7.47;;;1.52;;
9716;SDS011;4897;43.570;27.832;2023-03-11T11:45:45;2.70;;;1.65;;
9716;SDS011;4897;43.570;27.832;2023-03-11T11:48:16;2.80;;;1.77;;
9716;SDS011;4897;43.570;27.832;2023-03-11T11:50:47;2.67;;;1.48;;
9716;SDS011;4897;43.570;27.832;2023-03-11T11:53:26;1.88;;;1.00;;
9716;SDS011;4897;43.570;27.832;2023-03-11T11:55:58;1.55;;;1.10;;
9716;SDS011;4897;43.570;27.832;2023-03-11T11:58:26;2.53;;;1.30;;
9716;SDS011;4897;43.570;27.832;2023-03-11T12:06:53;1.67;;;1.20;;
9716;SDS011;4897;43.570;27.832;2023-03-11T12:09:31;2.72;;;1.20;;
9716;SDS011;4897;43.570;27.832;2023-03-11T12:12:07;1.42;;;1.15;;
9716;SDS011;4897;43.570;27.832;2023-03-11T12:14:45;2.13;;;1.27;;
9716;SDS011;4897;43.570;27.832;2023-03-11T12:17:19;1.88;;;1.30;;
9716;SDS011;4897;43.570;27.832;2023-03-11T12:19:48;1.55;;;1.08;;
9716;SDS011;4897;43.570;27.832;2023-03-11T12:25:24;1.70;;;0.98;;
9716;SDS011;4897;43.570;27.832;2023-03-11T12:27:58;1.73;;;1.30;;
9716;SDS011;4897;43.570;27.832;2023-03-11T12:30:34;2.72;;;1.52;;
9716;SDS011;4897;43.570;27.832;2023-03-11T12:33:04;1.40;;;1.10;;
9716;SDS011;4897;43.570;27.832;2023-03-11T12:35:39;4.95;;;1.30;;
9716;SDS011;4897;43.570;27.832;2023-03-11T12:38:15;3.60;;;1.40;;
9716;SDS011;4897;43.570;27.832;2023-03-11T12:40:49;1.73;;;1.00;;
9716;SDS011;4897;43.570;27.832;2023-03-11T12:49:36;2.47;;;1.65;;
9716;SDS011;4897;43.570;27.832;2023-03-11T12:54:48;2.45;;;1.52;;
9716;SDS011;4897;43.570;27.832;2023-03-11T12:57:59;1.90;;;1.30;;
9716;SDS011;4897;43.570;27.832;2023-03-11T13:00:39;2.55;;;1.33;;
9716;SDS011;4897;43.570;27.832;2023-03-11T13:03:27;6.10;;;1.10;;
9716;SDS011;4897;43.570;27.832;2023-03-11T13:09:12;2.17;;;1.50;;
9716;SDS011;4897;43.570;27.832;2023-03-11T13:11:42;1.95;;;1.50;;
9716;SDS011;4897;43.570;27.832;2023-03-11T13:14:19;1.60;;;1.50;;
9716;SDS011;4897;43.570;27.832;2023-03-11T13:16:52;3.92;;;2.13;;
9716;SDS011;4897;43.570;27.832;2023-03-11T13:25:37;5.38;;;2.00;;
9716;SDS011;4897;43.570;27.832;2023-03-11T13:30:58;2.22;;;2.03;;
9716;SDS011;4897;43.570;27.832;2023-03-11T13:33:41;2.67;;;2.28;;
9716;SDS011;4897;43.570;27.832;2023-03-11T13:36:17;4.05;;;2.33;;
9716;SDS011;4897;43.570;27.832;2023-03-11T13:42:12;2.10;;;1.90;;
9716;SDS011;4897;43.570;27.832;2023-03-11T13:44:42;2.72;;;1.90;;
9716;SDS011;4897;43.570;27.832;2023-03-11T13:47:14;2.30;;;1.77;;
9716;SDS011;4897;43.570;27.832;2023-03-11T13:49:44;2.20;;;2.00;;
9716;SDS011;4897;43.570;27.832;2023-03-11T13:52:17;2.50;;;1.92;;
9716;SDS011;4897;43.570;27.832;2023-03-11T13:54:51;3.15;;;2.30;;
9716;SDS011;4897;43.570;27.832;2023-03-11T13:57:24;5.97;;;2.05;;
9716;SDS011;4897;43.570;27.832;2023-03-11T13:59:54;5.18;;;2.05;;
9716;SDS011;4897;43.570;27.832;2023-03-11T14:02:24;3.28;;;2.45;;
9716;SDS011;4897;43.570;27.832;2023-03-11T14:04:53;3.97;;;2.22;;
9716;SDS011;4897;43.570;27.832;2023-03-11T14:07:23;3.08;;;1.92;;
9716;SDS011;4897;43.570;27.832;2023-03-11T14:12:41;2.25;;;1.83;;
9716;SDS011;4897;43.570;27.832;2023-03-11T14:15:11;5.28;;;2.40;;
9716;SDS011;4897;43.570;27.832;2023-03-11T14:17:42;5.70;;;2.60;;
9716;SDS011;4897;43.570;27.832;2023-03-11T14:20:13;6.25;;;2.03;;
9716;SDS011;4897;43.570;27.832;2023-03-11T14:22:45;3.03;;;1.80;;
9716;SDS011;4897;43.570;27.832;2023-03-11T14:25:15;3.63;;;2.00;;
9716;SDS011;4897;43.570;27.832;2023-03-11T14:27:47;3.20;;;2.30;;
9716;SDS011;4897;43.570;27.832;2023-03-11T14:30:19;5.35;;;2.38;;
9716;SDS011;4897;43.570;27.832;2023-03-11T14:33:02;5.15;;;2.70;;
9716;SDS011;4897;43.570;27.832;2023-03-11T14:35:30;5.45;;;2.70;;
9716;SDS011;4897;43.570;27.832;2023-03-11T14:37:58;3.70;;;2.75;;
9716;SDS011;4897;43.570;27.832;2023-03-11T14:40:27;3.08;;;2.70;;
9716;SDS011;4897;43.570;27.832;2023-03-11T14:42:56;2.83;;;2.33;;
9716;SDS011;4897;43.570;27.832;2023-03-11T14:45:27;3.80;;;3.05;;
9716;SDS011;4897;43.570;27.832;2023-03-11T14:47:55;4.03;;;3.15;;
9716;SDS011;4897;43.570;27.832;2023-03-11T14:50:29;4.47;;;2.83;;
9716;SDS011;4897;43.570;27.832;2023-03-11T14:53:00;4.05;;;2.97;;
9716;SDS011;4897;43.570;27.832;2023-03-11T14:55:34;3.95;;;3.17;;
9716;SDS011;4897;43.570;27.832;2023-03-11T14:58:05;4.38;;;3.40;;
9716;SDS011;4897;43.570;27.832;2023-03-11T15:00:39;5.32;;;3.22;;
9716;SDS011;4897;43.570;27.832;2023-03-11T15:03:14;2.85;;;2.60;;
9716;SDS011;4897;43.570;27.832;2023-03-11T15:05:48;4.47;;;3.00;;
9716;SDS011;4897;43.570;27.832;2023-03-11T15:08:18;7.38;;;3.20;;
9716;SDS011;4897;43.570;27.832;2023-03-11T15:11:00;3.55;;;2.40;;
9716;SDS011;4897;43.570;27.832;2023-03-11T15:13:28;2.20;;;2.00;;
9716;SDS011;4897;43.570;27.832;2023-03-11T15:15:55;3.20;;;2.40;;
9716;SDS011;4897;43.570;27.832;2023-03-11T15:18:26;4.75;;;2.97;;
9716;SDS011;4897;43.570;27.832;2023-03-11T15:21:11;4.05;;;2.53;;
9716;SDS011;4897;43.570;27.832;2023-03-11T15:23:43;3.67;;;2.63;;
9716;SDS011;4897;43.570;27.832;2023-03-11T15:26:18;4.82;;;3.10;;
9716;SDS011;4897;43.570;27.832;2023-03-11T15:28:51;8.55;;;4.65;;
9716;SDS011;4897;43.570;27.832;2023-03-11T15:34:20;7.30;;;3.78;;
9716;SDS011;4897;43.570;27.832;2023-03-11T15:36:58;4.38;;;3.40;;
9716;SDS011;4897;43.570;27.832;2023-03-11T15:39:27;9.15;;;4.57;;
9716;SDS011;4897;43.570;27.832;2023-03-11T15:42:12;8.25;;;4.80;;
9716;SDS011;4897;43.570;27.832;2023-03-11T15:44:40;10.80;;;5.15;;
9716;SDS011;4897;43.570;27.832;2023-03-11T15:47:14;5.63;;;3.90;;
9716;SDS011;4897;43.570;27.832;2023-03-11T15:49:43;7.70;;;4.50;;
9716;SDS011;4897;43.570;27.832;2023-03-11T15:52:10;7.80;;;4.72;;
9716;SDS011;4897;43.570;27.832;2023-03-11T15:54:37;7.65;;;4.43;;